createdAt,value
2022-10-06T00:00:10.225Z,71.50
2022-10-06T00:04:13.345Z,71.50
2022-10-06T00:08:16.699Z,71.70
2022-10-06T00:12:19.409Z,71.90
2022-10-06T00:16:22.525Z,72.00
2022-10-06T00:20:29.097Z,72.10
2022-10-06T00:24:35.171Z,72.40
2022-10-06T00:28:38.057Z,72.30
2022-10-06T00:32:41.180Z,72.30
2022-10-06T00:36:44.398Z,72.30
2022-10-06T00:40:51.110Z,72.40
2022-10-06T00:44:54.426Z,72.90
2022-10-06T00:49:17.499Z,71.60
2022-10-06T00:53:21.866Z,72.60
2022-10-06T00:57:27.632Z,72.90
2022-10-06T01:01:32.421Z,72.80
2022-10-06T01:05:41.531Z,72.70
2022-10-06T01:09:45.573Z,73.10
2022-10-06T01:13:49.556Z,72.90
2022-10-06T01:18:15.039Z,72.90
2022-10-06T01:22:28.544Z,73.50
2022-10-06T01:26:34.157Z,73.40
2022-10-06T01:30:43.596Z,73.50
2022-10-06T01:34:46.442Z,73.60
2022-10-06T01:38:49.197Z,73.50
2022-10-06T01:42:52.074Z,73.50
2022-10-06T01:46:54.921Z,73.80
2022-10-06T01:50:57.890Z,74.00
2022-10-06T01:55:01.059Z,74.00
2022-10-06T01:59:04.050Z,73.90
2022-10-06T02:03:08.001Z,73.80
2022-10-06T02:07:10.758Z,73.60
2022-10-06T02:11:20.760Z,73.30
2022-10-06T02:15:27.064Z,73.40
2022-10-06T02:19:30.654Z,73.40
2022-10-06T02:23:34.740Z,73.70
2022-10-06T02:27:39.207Z,73.90
2022-10-06T02:31:43.405Z,73.90
2022-10-06T02:35:47.213Z,73.90
2022-10-06T02:39:50.259Z,73.80
2022-10-06T02:43:55.341Z,73.90
2022-10-06T02:47:58.843Z,73.80
2022-10-06T02:52:01.706Z,73.80
2022-10-06T02:56:08.685Z,74.00
2022-10-06T03:00:12.208Z,74.30
2022-10-06T03:04:15.271Z,74.50
2022-10-06T03:08:18.700Z,74.40
2022-10-06T03:12:22.440Z,74.50
2022-10-06T03:16:32.142Z,74.60
2022-10-06T03:20:36.015Z,74.90
2022-10-06T03:24:39.684Z,74.80
2022-10-06T03:28:42.700Z,74.70
2022-10-06T03:32:45.677Z,74.70
2022-10-06T03:36:49.184Z,74.80
2022-10-06T03:41:09.575Z,74.90
2022-10-06T03:45:12.975Z,75.10
2022-10-06T03:49:15.937Z,74.90
2022-10-06T03:53:18.761Z,75.10
2022-10-06T03:57:21.958Z,75.30
2022-10-06T04:01:31.657Z,75.40
2022-10-06T04:05:37.860Z,75.50
2022-10-06T04:09:40.973Z,75.20
2022-10-06T04:13:45.799Z,75.20
2022-10-06T04:17:48.778Z,75.30
2022-10-06T04:21:52.284Z,75.40
2022-10-06T04:26:05.300Z,75.60
2022-10-06T04:30:08.914Z,75.60
2022-10-06T04:34:13.571Z,75.60
2022-10-06T04:38:17.677Z,75.50
2022-10-06T04:42:20.910Z,75.50
2022-10-06T04:46:42.040Z,75.60
2022-10-06T04:50:57.633Z,75.50
2022-10-06T04:55:01.888Z,75.60
2022-10-06T04:59:04.974Z,75.50
2022-10-06T05:03:13.375Z,75.70
2022-10-06T05:07:23.217Z,75.80
2022-10-06T05:11:28.237Z,75.80
2022-10-06T05:15:31.855Z,76.10
2022-10-06T05:19:36.149Z,76.30
2022-10-06T05:23:40.854Z,76.20
2022-10-06T05:27:43.845Z,76.30
2022-10-06T05:31:48.581Z,76.40
2022-10-06T05:35:56.953Z,76.10
2022-10-06T05:39:59.990Z,76.40
2022-10-06T05:44:03.295Z,76.40
2022-10-06T05:48:07.856Z,76.30
2022-10-06T05:52:10.799Z,76.20
2022-10-06T05:56:19.485Z,76.20
2022-10-06T06:00:22.394Z,76.50
2022-10-06T06:04:25.419Z,76.30
2022-10-06T06:08:32.174Z,76.30
2022-10-06T06:12:35.857Z,76.20
2022-10-06T06:17:05.577Z,76.40
2022-10-06T06:21:10.416Z,76.20
2022-10-06T06:25:13.656Z,76.50
2022-10-06T06:29:18.882Z,76.40
2022-10-06T06:33:24.315Z,76.50
2022-10-06T06:37:27.680Z,76.70
2022-10-06T06:41:33.976Z,76.80
2022-10-06T06:45:42.450Z,77.00
2022-10-06T06:50:10.392Z,76.90
2022-10-06T06:54:15.879Z,76.70
2022-10-06T06:58:20.987Z,76.60
2022-10-06T07:02:26.579Z,76.30
2022-10-06T07:06:31.191Z,75.80
2022-10-06T07:10:37.368Z,75.80
2022-10-06T07:15:03.833Z,74.90
2022-10-06T07:19:31.454Z,75.70
2022-10-06T07:23:52.675Z,75.50
2022-10-06T07:27:56.932Z,75.30
2022-10-06T07:32:07.331Z,75.10
2022-10-06T07:36:11.242Z,75.00
2022-10-06T07:40:15.852Z,74.80
2022-10-06T07:44:18.757Z,74.60
2022-10-06T07:48:23.726Z,74.40
2022-10-06T07:52:29.934Z,74.10
2022-10-06T07:56:34.197Z,73.90
2022-10-06T08:00:37.313Z,73.60
2022-10-06T08:04:40.999Z,73.30
2022-10-06T08:08:47.115Z,73.10
2022-10-06T08:12:53.227Z,72.40
2022-10-06T08:16:56.053Z,71.70
2022-10-06T08:21:29.811Z,71.50
2022-10-06T08:25:33.502Z,71.10
2022-10-06T08:29:36.933Z,69.90
2022-10-06T08:33:42.444Z,69.70
2022-10-06T08:37:48.219Z,69.20
2022-10-06T08:41:53.317Z,68.50
2022-10-06T08:46:01.862Z,68.30
2022-10-06T08:50:13.134Z,67.90
2022-10-06T08:54:25.551Z,67.50
2022-10-06T08:58:44.862Z,67.30
2022-10-06T09:02:51.056Z,66.50
2022-10-06T09:07:00.436Z,66.10
2022-10-06T09:11:22.541Z,65.80
2022-10-06T09:16:07.755Z,66.00
2022-10-06T09:20:28.811Z,66.20
2022-10-06T09:24:43.582Z,65.50
2022-10-06T09:28:51.411Z,65.10
2022-10-06T09:33:05.964Z,64.70
2022-10-06T09:37:12.811Z,63.00
2022-10-06T09:41:16.553Z,63.20
2022-10-06T09:45:25.973Z,63.40
2022-10-06T09:49:31.704Z,63.40
2022-10-06T09:53:37.697Z,62.60
2022-10-06T09:57:50.991Z,63.00
2022-10-06T10:01:55.573Z,62.30
2022-10-06T10:05:59.992Z,62.00
2022-10-06T10:10:25.345Z,61.00
2022-10-06T10:14:37.229Z,60.80
2022-10-06T10:18:46.953Z,59.90
2022-10-06T10:22:50.382Z,59.80
2022-10-06T10:26:57.134Z,59.70
2022-10-06T10:31:48.477Z,59.60
2022-10-06T10:35:56.072Z,59.70
2022-10-06T10:40:29.975Z,57.20
2022-10-06T10:44:42.057Z,57.70
2022-10-06T10:48:51.662Z,56.30
2022-10-06T10:57:35.337Z,54.40
2022-10-06T11:01:47.185Z,53.00
2022-10-06T11:06:24.932Z,53.20
2022-10-06T11:10:43.458Z,52.90
2022-10-06T11:14:54.398Z,52.80
2022-10-06T11:19:15.506Z,51.60
2022-10-06T11:23:36.486Z,51.80
2022-10-06T11:28:04.503Z,51.40
2022-10-06T11:32:13.199Z,49.70
2022-10-06T11:36:28.127Z,49.30
2022-10-06T11:40:50.762Z,47.90
2022-10-06T11:45:13.049Z,47.00
2022-10-06T11:49:28.688Z,46.60
2022-10-06T11:53:39.086Z,46.50
2022-10-06T11:58:05.368Z,45.50
2022-10-06T12:02:30.950Z,46.50
2022-10-06T12:06:46.759Z,46.00
2022-10-06T12:10:50.728Z,45.90
2022-10-06T12:19:53.493Z,44.20
2022-10-06T12:24:19.385Z,45.20
2022-10-06T12:28:49.352Z,44.70
2022-10-06T12:32:53.819Z,45.30
2022-10-06T12:37:33.760Z,43.70
2022-10-06T12:42:21.656Z,44.80
2022-10-06T12:46:53.230Z,44.70
2022-10-06T12:51:31.119Z,45.10
2022-10-06T12:55:52.336Z,44.90
2022-10-06T12:59:55.541Z,43.90
2022-10-06T13:03:58.307Z,43.80
2022-10-06T13:08:07.470Z,42.00
2022-10-06T13:12:19.856Z,40.10
2022-10-06T13:16:37.003Z,42.10
2022-10-06T13:20:42.097Z,41.30
2022-10-06T13:24:44.881Z,40.40
2022-10-06T13:28:53.297Z,40.50
2022-10-06T13:32:57.088Z,38.10
2022-10-06T13:37:01.405Z,37.50
2022-10-06T13:41:25.860Z,38.10
2022-10-06T13:45:29.140Z,37.20
2022-10-06T13:49:57.747Z,36.90
2022-10-06T13:54:21.754Z,38.20
2022-10-06T13:58:33.257Z,36.80
2022-10-06T14:02:40.040Z,38.40
2022-10-06T14:06:56.764Z,37.10
2022-10-06T14:11:08.453Z,37.20
2022-10-06T14:15:23.022Z,37.90
2022-10-06T14:19:52.119Z,38.80
2022-10-06T14:23:59.310Z,39.50
2022-10-06T14:28:07.737Z,39.40
2022-10-06T14:32:27.705Z,39.50
2022-10-06T14:36:41.299Z,40.50
2022-10-06T14:40:57.931Z,40.00
2022-10-06T14:45:03.058Z,40.50
2022-10-06T14:49:07.651Z,41.30
2022-10-06T14:53:18.061Z,40.70
2022-10-06T14:57:25.667Z,41.20
2022-10-06T15:01:29.252Z,41.20
2022-10-06T15:05:32.148Z,41.90
2022-10-06T15:09:35.799Z,42.10
2022-10-06T15:13:40.417Z,41.70
2022-10-06T15:17:43.987Z,43.30
2022-10-06T15:21:51.914Z,43.40
2022-10-06T15:26:24.295Z,44.00
2022-10-06T15:30:41.968Z,44.50
2022-10-06T15:34:45.001Z,45.60
2022-10-06T15:38:48.392Z,45.70
2022-10-06T15:42:52.921Z,44.80
2022-10-06T15:46:56.738Z,44.80
2022-10-06T15:50:59.657Z,43.80
2022-10-06T15:55:03.440Z,44.60
2022-10-06T15:59:07.465Z,45.40
2022-10-06T16:03:24.628Z,45.90
2022-10-06T16:07:28.770Z,45.60
2022-10-06T16:11:31.499Z,45.90
2022-10-06T16:15:34.409Z,47.50
2022-10-06T16:19:38.626Z,49.10
2022-10-06T16:23:41.455Z,49.50
2022-10-06T16:27:44.289Z,50.10
2022-10-06T16:31:48.260Z,50.20
2022-10-06T16:35:55.958Z,48.90
2022-10-06T16:39:58.896Z,48.30
2022-10-06T16:44:01.781Z,47.80
2022-10-06T16:48:04.948Z,48.10
2022-10-06T16:52:07.809Z,49.00
2022-10-06T16:56:21.223Z,49.40
2022-10-06T17:00:25.869Z,49.90
2022-10-06T17:04:28.940Z,50.50
2022-10-06T17:08:32.169Z,50.70
2022-10-06T17:12:35.053Z,51.30
2022-10-06T17:16:41.340Z,51.20
2022-10-06T17:20:54.167Z,52.00
2022-10-06T17:24:57.149Z,52.50
2022-10-06T17:29:01.760Z,53.20
2022-10-06T17:33:04.801Z,53.70
2022-10-06T17:37:07.627Z,54.40
2022-10-06T17:41:25.576Z,54.70
2022-10-06T17:45:28.745Z,55.10
2022-10-06T17:49:34.714Z,54.80
2022-10-06T17:53:46.466Z,55.10
2022-10-06T17:57:49.256Z,56.20
2022-10-06T18:01:56.301Z,56.50
2022-10-06T18:06:00.559Z,56.90
2022-10-06T18:10:22.408Z,57.20
2022-10-06T18:14:27.378Z,57.60
2022-10-06T18:18:31.285Z,58.30
2022-10-06T18:22:34.185Z,59.00
2022-10-06T18:26:38.612Z,60.00
2022-10-06T18:30:41.531Z,60.30
2022-10-06T18:39:08.440Z,61.40
2022-10-06T18:43:11.383Z,61.80
2022-10-06T18:47:32.630Z,62.40
2022-10-06T18:51:38.536Z,62.50
2022-10-06T18:55:41.353Z,63.30
2022-10-06T18:59:44.746Z,63.30
2022-10-06T19:03:47.699Z,63.60
2022-10-06T19:07:53.106Z,63.80
2022-10-06T19:11:57.922Z,64.10
2022-10-06T19:16:02.142Z,64.00
2022-10-06T19:20:05.672Z,63.70
2022-10-06T19:24:11.727Z,63.50
2022-10-06T19:28:14.813Z,63.40
2022-10-06T19:32:21.616Z,63.10
2022-10-06T19:36:25.697Z,63.10
2022-10-06T19:40:28.628Z,62.90
2022-10-06T19:44:31.513Z,62.80
2022-10-06T19:48:34.594Z,62.70
2022-10-06T19:52:37.748Z,62.60
2022-10-06T19:56:42.122Z,62.60
2022-10-06T20:00:45.020Z,62.80
2022-10-06T20:04:48.122Z,62.90
2022-10-06T20:08:53.095Z,62.90
2022-10-06T20:12:58.640Z,62.90
2022-10-06T20:17:02.759Z,62.80
2022-10-06T20:21:07.512Z,62.90
2022-10-06T20:25:10.425Z,62.70
2022-10-06T20:29:15.439Z,62.70
2022-10-06T20:33:18.348Z,62.60
2022-10-06T20:37:21.203Z,62.60
2022-10-06T20:41:24.056Z,62.40
2022-10-06T20:45:26.860Z,62.40
2022-10-06T20:49:29.605Z,62.20
2022-10-06T20:53:32.453Z,62.10
2022-10-06T20:57:35.213Z,62.50
2022-10-06T21:01:40.252Z,62.70
2022-10-06T21:05:51.283Z,63.10
2022-10-06T21:09:55.189Z,63.80
2022-10-06T21:13:58.419Z,64.10
2022-10-06T21:18:03.758Z,64.60
2022-10-06T21:22:06.613Z,65.10
2022-10-06T21:26:12.514Z,65.60
2022-10-06T21:30:15.268Z,66.00
2022-10-06T21:34:18.284Z,66.30
2022-10-06T21:38:21.403Z,66.80
2022-10-06T21:42:24.152Z,67.30
2022-10-06T21:46:30.482Z,67.60
2022-10-06T21:50:33.379Z,68.00
2022-10-06T21:54:38.127Z,68.00
2022-10-06T21:58:40.945Z,68.50
2022-10-06T22:02:43.795Z,68.70
2022-10-06T22:06:50.190Z,68.80
2022-10-06T22:10:52.959Z,69.20
2022-10-06T22:14:59.089Z,69.30
2022-10-06T22:19:03.936Z,69.70
2022-10-06T22:23:06.748Z,69.80
2022-10-06T22:27:09.467Z,70.00
2022-10-06T22:31:13.404Z,70.20
2022-10-06T22:35:17.431Z,70.40
2022-10-06T22:39:20.312Z,70.70
2022-10-06T22:43:23.075Z,70.70
2022-10-06T22:47:25.864Z,70.60
2022-10-06T22:51:28.742Z,70.70
2022-10-06T22:55:31.361Z,71.10
2022-10-06T22:59:34.231Z,71.30
2022-10-06T23:03:37.085Z,71.50
2022-10-06T23:07:39.892Z,71.60
2022-10-06T23:11:42.879Z,71.80
2022-10-06T23:15:45.765Z,71.90
2022-10-06T23:19:48.446Z,72.00
2022-10-06T23:23:53.595Z,72.10
2022-10-06T23:27:56.701Z,72.30
2022-10-06T23:31:59.845Z,72.30
2022-10-06T23:36:05.854Z,72.30
2022-10-06T23:40:09.118Z,72.60
2022-10-06T23:44:11.907Z,72.40
2022-10-06T23:48:15.321Z,72.30
2022-10-06T23:52:18.415Z,72.40
2022-10-06T23:56:21.783Z,72.30
